Latest Weather Observations for Melbourne Airport

IDV60901

Issued at 7:21 am EDT Wednesday 20 November 2019 (issued every 10 minutes, with the page automatically refreshed every 10 minutes)

About weather observations | Map of Melbourne area stations | Latest observations for Melbourne area | Other Formats
Station Details ID: 086282 Name: MELBOURNE AIRPORT Lat: -37.67 Lon: 144.83 Height: 113.4 m
Data from the previous 72 hours. | See also: Recent months at Melbourne Airport
Date/Time
EDT
Temp
°C
App
Temp
°C
Dew
Point
°C
Rel
Hum
%
Delta-T
°C
Wind Press
QNH
hPa
Press
MSL
hPa
Rain since
9am
mm
Dir  Spd
km/h
Gust
km/h
Spd
kts
Gust
kts
20/07:00am 10.6 8.8 7.9 83 1.3 NNW 7 9 4 5 1014.1 1013.9 0.0
20/06:30am 9.1 6.5 7.6 90 0.7 NNE 11 11 6 6 1013.9 1013.7 0.0
20/06:00am 8.4 6.4 7.1 91 0.6 N 7 9 4 5 1014.3 1014.1 0.0
20/05:30am 8.6 6.6 7.1 90 0.7 SE 7 7 4 4 1014.3 1014.1 0.0
20/05:19am 9.5 8.6 7.6 88 0.9 SSE 2 7 1 4 1014.2 1014.0 0.0
20/05:00am 9.5 9.0 7.8 89 0.8 CALM 0 4 0 2 1014.3 1014.1 0.0
20/04:30am 9.9 8.1 8.0 88 0.9 SSE 7 11 4 6 1014.3 1014.1 0.0
20/04:00am 10.1 8.4 8.3 88 0.9 E 7 9 4 5 1014.6 1014.4 0.0
20/03:30am 10.0 7.5 8.2 88 0.9 E 11 11 6 6 1014.6 1014.4 0.0
20/03:00am 10.6 8.4 7.9 83 1.3 SE 9 11 5 6 1014.9 1014.7 0.0
20/02:30am 10.7 8.2 8.3 85 1.2 SSE 11 13 6 7 1015.4 1015.2 0.0
20/02:00am 11.2 9.2 8.6 84 1.3 SSE 9 11 5 6 1015.7 1015.6 0.0
20/01:30am 12.2 10.0 9.2 82 1.5 SE 11 15 6 8 1016.1 1016.0 0.0
20/01:00am 12.3 10.5 9.3 82 1.5 SSE 9 11 5 6 1016.6 1016.5 0.0
20/12:30am 12.3 10.4 9.1 81 1.6 S 9 11 5 6 1016.8 1016.7 0.0
20/12:00am 12.3 10.0 9.1 81 1.6 S 11 13 6 7 1016.8 1016.7 0.0
 
Date/Time
EDT
Temp
°C
App
Temp
°C
Dew
Point
°C
Rel
Hum
%
Delta-T
°C
Wind Press
QNH
hPa
Press
MSL
hPa
Rain since
9am
mm
Dir  Spd
km/h
Gust
km/h
Spd
kts
Gust
kts
19/11:30pm 12.2 9.6 9.2 82 1.5 S 13 15 7 8 1016.9 1016.8 0.0
19/11:00pm 12.0 10.2 9.6 85 1.2 SSW 9 13 5 7 1016.6 1016.5 0.0
19/10:30pm 11.2 9.4 9.6 90 0.8 SW 9 11 5 6 1016.3 1016.2 0.0
19/10:00pm 11.2 9.8 9.4 89 0.9 SW 7 9 4 5 1015.9 1015.8 0.0
19/09:30pm 12.2 9.8 9.9 86 1.2 S 13 17 7 9 1015.8 1015.7 0.0
19/09:00pm 12.6 10.2 9.9 83 1.4 S 13 19 7 10 1016.0 1015.9 0.0
19/08:30pm 13.2 9.4 9.9 80 1.7 S 20 28 11 15 1016.0 1015.9 0.0
19/08:00pm 14.0 10.2 9.7 75 2.2 S 20 28 11 15 1015.9 1015.8 0.0
19/07:30pm 15.5 11.7 9.8 69 3.0 S 20 26 11 14 1015.3 1015.1 0.0
19/07:00pm 16.3 12.5 9.2 63 3.7 S 19 24 10 13 1014.9 1014.7 0.0
19/06:30pm 16.6 12.4 9.8 64 3.6 S 22 28 12 15 1014.7 1014.5 0.0
19/06:00pm 17.6 13.4 9.9 60 4.1 S 22 32 12 17 1014.6 1014.4 0.0
19/05:30pm 18.6 14.6 9.1 54 5.0 SSE 20 28 11 15 1014.4 1014.2 0.0
19/05:00pm 18.7 13.9 8.8 52 5.2 S 24 32 13 17 1014.2 1014.0 0.0
19/04:30pm 18.9 14.1 8.8 52 5.3 SSE 24 33 13 18 1014.2 1014.0 0.0
19/04:00pm 20.1 15.9 8.2 46 6.2 S 20 30 11 16 1014.2 1014.0 0.0
19/03:30pm 19.5 15.3 8.4 48 5.8 SSE 20 32 11 17 1014.2 1014.0 0.0
19/03:00pm 18.7 14.4 8.0 49 5.5 SSE 20 32 11 17 1014.1 1013.9 0.0
19/02:30pm 19.0 14.7 7.2 46 6.0 SSE 19 32 10 17 1014.1 1013.9 0.0
19/02:00pm 19.0 15.1 7.2 46 6.0 S 17 26 9 14 1014.1 1013.9 0.0
19/01:30pm 19.0 15.2 7.7 48 5.8 SE 17 26 9 14 1014.3 1014.1 0.0
19/01:00pm 18.7 14.8 8.5 51 5.3 SSE 19 28 10 15 1014.4 1014.2 0.0
19/12:30pm 18.0 14.5 8.6 54 4.9 SSE 17 28 9 15 1014.5 1014.3 0.0
19/12:00pm 18.3 14.3 8.9 54 4.9 SSE 20 30 11 16 1014.6 1014.4 0.0
19/11:30am 18.5 14.9 8.3 51 5.3 SSE 17 28 9 15 1014.5 1014.3 0.0
19/11:00am 16.7 13.5 8.3 57 4.3 S 15 24 8 13 1014.2 1014.0 0.0
19/10:30am 16.1 12.8 9.4 64 3.5 S 17 22 9 12 1014.2 1014.0 0.0
19/10:00am 16.3 13.3 9.2 63 3.7 S 15 19 8 10 1014.0 1013.8 0.0
19/09:30am 15.0 11.8 9.8 71 2.7 S 17 24 9 13 1014.0 1013.8 0.0
19/09:00am 15.0 12.7 10.5 74 2.4 SSE 13 20 7 11 1013.8 1013.6 0.0
19/08:30am 14.8 13.0 10.7 76 2.2 S 11 15 6 8 1013.4 1013.2 0.0
19/08:23am 14.0 12.5 10.6 80 1.8 SSW 9 13 5 7 1013.4 1013.2 0.0
19/08:00am 12.9 11.3 10.2 84 1.4 SW 9 11 5 6 1013.0 1012.8 0.0
19/07:30am 11.5 10.1 9.7 89 0.9 W 7 9 4 5 1012.7 1012.5 0.0
19/07:00am 9.9 9.7 8.9 93 0.5 CALM 0 7 0 4 1012.6 1012.4 0.0
19/06:30am 8.9 6.3 7.9 93 0.5 N 11 13 6 7 1012.3 1012.1 0.0
19/06:00am 8.3 6.4 7.5 95 0.4 NNW 7 9 4 5 1012.1 1011.9 0.0
19/05:30am 8.2 6.3 7.4 95 0.4 N 7 9 4 5 1011.7 1011.5 0.0
19/05:00am 9.0 6.1 8.2 95 0.4 N 13 15 7 8 1011.7 1011.5 0.0
19/04:30am 8.6 6.0 7.8 95 0.4 N 11 13 6 7 1011.6 1011.4 0.0
19/04:00am 9.3 8.2 8.3 93 0.5 NNW 4 9 2 5 1011.5 1011.3 0.0
19/03:30am 9.6 9.3 8.6 93 0.5 CALM 0 0 0 0 1011.4 1011.2 0.0
19/03:00am 9.7 8.3 8.9 95 0.4 NNW 6 9 3 5 1011.4 1011.2 0.0
19/02:30am 10.6 8.4 9.4 92 0.6 N 11 13 6 7 1011.4 1011.2 0.0
19/02:00am 10.5 8.3 9.3 92 0.6 N 11 13 6 7 1011.6 1011.4 0.0
19/01:30am 11.3 9.5 9.5 89 0.9 N 9 15 5 8 1011.8 1011.6 0.0
19/01:00am 11.4 8.9 9.6 89 0.9 N 13 15 7 8 1012.2 1012.0 0.0
19/12:30am 11.6 11.5 9.4 86 1.1 CALM 0 0 0 0 1013.0 1012.8 0.0
19/12:00am 12.6 12.0 10.3 86 1.2 S 4 7 2 4 1013.2 1013.0 0.0
 
Date/Time
EDT
Temp
°C
App
Temp
°C
Dew
Point
°C
Rel
Hum
%
Delta-T
°C
Wind Press
QNH
hPa
Press
MSL
hPa
Rain since
9am
mm
Dir  Spd
km/h
Gust
km/h
Spd
kts
Gust
kts
18/11:30pm 12.9 11.0 10.4 85 1.3 S 11 13 6 7 1013.3 1013.1 0.0
18/11:00pm 13.3 11.0 10.6 84 1.4 S 13 17 7 9 1013.3 1013.1 0.0
18/10:30pm 13.9 11.0 10.9 82 1.6 SSW 17 24 9 13 1013.0 1012.8 0.0
18/10:00pm 13.9 12.0 10.5 80 1.8 SSW 11 15 6 8 1012.8 1012.6 0.0
18/09:30pm 14.5 12.4 11.1 80 1.8 S 13 17 7 9 1012.3 1012.1 0.0
18/09:00pm 15.2 12.8 11.3 77 2.1 S 15 22 8 12 1012.1 1011.9 0.0
18/08:30pm 16.6 14.3 11.9 74 2.6 SSE 15 20 8 11 1011.6 1011.4 0.0
18/08:00pm 20.8 16.6 7.5 42 6.9 SSW 19 28 10 15 1011.1 1010.9 0.0
18/07:30pm 25.7 20.2 0.3 19 11.9 W 19 26 10 14 1010.8 1010.6 0.0
18/07:00pm 27.2 21.7 2.0 19 12.3 WSW 20 30 11 16 1010.9 1010.7 0.0
18/06:30pm 27.5 21.4 2.6 20 12.3 W 24 33 13 18 1011.0 1010.8 0.0
18/06:00pm 27.3 22.5 2.6 20 12.2 W 17 30 9 16 1011.1 1010.9 0.0
18/05:30pm 27.3 24.5 5.3 24 11.4 SSE 9 17 5 9 1011.4 1011.2 0.0
18/05:00pm 28.2 23.1 4.1 21 12.3 WSW 20 32 11 17 1011.7 1011.5 0.0
18/04:30pm 27.9 22.8 4.1 21 12.1 SW 20 37 11 20 1012.0 1011.8 0.0
18/04:00pm 27.6 21.7 3.9 22 12.0 SW 24 37 13 20 1012.4 1012.2 0.0
18/03:30pm 27.2 22.3 4.1 22 11.7 SW 19 32 10 17 1012.7 1012.5 0.0
18/03:00pm 26.6 21.1 3.9 23 11.4 W 22 37 12 20 1013.0 1012.8 0.0
18/02:30pm 27.2 21.6 3.7 22 11.8 SW 22 39 12 21 1013.3 1013.1 0.0
18/02:00pm 26.0 21.2 4.4 25 10.9 WSW 19 33 10 18 1013.6 1013.4 0.0
18/01:30pm 25.5 20.3 3.5 24 10.9 W 20 43 11 23 1013.8 1013.6 0.0
18/01:00pm 25.2 19.6 3.2 24 10.8 WSW 22 35 12 19 1014.1 1013.9 0.0
18/12:30pm 25.5 18.8 3.5 24 10.9 WSW 28 39 15 21 1014.4 1014.2 0.0
18/12:00pm 23.9 18.5 2.5 24 10.3 W 20 35 11 19 1014.8 1014.6 0.0
18/11:30am 23.3 17.9 2.7 26 9.9 WSW 20 35 11 19 1015.3 1015.1 0.0
18/11:00am 21.8 19.2 6.0 35 8.0 N 9 19 5 10 1015.7 1015.6 0.0
18/10:30am 20.8 17.4 4.1 33 8.1 NNW 11 17 6 9 1016.0 1015.9 0.0
18/10:00am 20.2 15.3 4.0 34 7.8 N 19 30 10 16 1016.3 1016.2 0.0
18/09:30am 18.4 12.8 3.5 37 7.0 NNW 22 32 12 17 1016.8 1016.7 0.0
18/09:00am 16.3 10.6 5.0 47 5.4 N 24 28 13 15 1017.0 1016.9 0.0
18/08:30am 13.9 9.3 5.4 56 4.0 N 19 24 10 13 1017.3 1017.2 0.0
18/08:00am 12.3 8.1 5.7 64 3.1 N 17 20 9 11 1017.7 1017.6 0.0
18/07:30am 9.9 5.6 5.3 73 2.1 N 17 20 9 11 1017.7 1017.6 0.0
18/07:00am 8.6 5.4 5.3 80 1.5 N 11 13 6 7 1018.2 1018.0 0.0
18/06:30am 8.1 4.4 4.7 79 1.5 N 13 17 7 9 1018.2 1018.0 0.0
18/06:00am 6.0 2.6 3.9 86 0.9 N 11 15 6 8 1018.3 1018.1 0.0
18/05:30am 6.0 2.6 4.1 88 0.8 N 11 13 6 7 1018.3 1018.1 0.0
18/05:00am 6.0 3.5 3.6 84 1.0 NNW 6 9 3 5 1018.2 1018.0 0.0
18/04:30am 6.6 3.6 4.3 85 1.0 NNW 9 13 5 7 1018.1 1017.9 0.0
18/04:00am 6.8 3.1 4.3 84 1.1 N 13 15 7 8 1018.2 1018.0 0.0
18/03:30am 7.6 3.9 4.4 80 1.4 N 13 15 7 8 1018.3 1018.1 0.0
18/03:00am 7.5 3.8 4.5 81 1.3 NNW 13 15 7 8 1018.3 1018.1 0.0
18/02:30am 7.9 3.8 4.5 79 1.5 N 15 17 8 9 1018.4 1018.2 0.0
18/02:00am 7.9 3.9 5.0 82 1.3 N 15 17 8 9 1018.7 1018.5 0.0
18/01:30am 8.0 4.4 4.8 80 1.4 N 13 15 7 8 1019.3 1019.1 0.0
18/01:00am 8.3 4.8 5.4 82 1.3 N 13 13 7 7 1019.8 1019.6 0.0
18/12:30am 8.8 6.3 5.0 77 1.7 NW 7 7 4 4 1020.3 1020.1 0.0
18/12:00am 8.8 6.4 5.2 78 1.6 WNW 7 9 4 5 1020.5 1020.3 0.0
 
Date/Time
EDT
Temp
°C
App
Temp
°C
Dew
Point
°C
Rel
Hum
%
Delta-T
°C
Wind Press
QNH
hPa
Press
MSL
hPa
Rain since
9am
mm
Dir  Spd
km/h
Gust
km/h
Spd
kts
Gust
kts
17/11:30pm 8.8 6.0 5.0 77 1.7 W 9 11 5 6 1020.8 1020.6 0.0
17/11:00pm 9.7 8.6 5.1 73 2.1 CALM 0 0 0 0 1021.0 1020.8 0.0
17/10:30pm 9.7 8.5 4.8 71 2.2 CALM 0 4 0 2 1021.1 1020.9 0.0
17/10:00pm 9.9 8.0 5.0 71 2.2 SSW 4 9 2 5 1021.2 1021.0 0.0
17/09:30pm 10.0 7.9 5.6 74 2.0 SSW 6 7 3 4 1020.9 1020.7 0.0
17/09:00pm 10.5 7.6 4.7 67 2.6 S 9 13 5 7 1021.1 1020.9 0.0
17/08:30pm 11.1 7.8 4.4 63 3.0 S 11 15 6 8 1021.4 1021.2 0.0
17/08:00pm 11.8 7.3 4.3 60 3.4 SSE 17 20 9 11 1021.4 1021.2 0.0
17/07:30pm 12.5 7.6 4.1 56 3.8 S 19 26 10 14 1021.4 1021.2 0.0
17/07:00pm 13.1 8.2 4.1 54 4.1 S 19 26 10 14 1021.2 1021.0 0.0
17/06:30pm 13.6 8.7 3.9 52 4.4 SSE 19 26 10 14 1020.6 1020.4 0.0
17/06:00pm 13.9 8.4 4.1 51 4.5 SSE 22 32 12 17 1020.5 1020.3 0.0
17/05:30pm 14.5 9.5 3.8 48 4.9 SSE 19 30 10 16 1020.5 1020.3 0.0
17/05:00pm 16.1 10.6 3.8 44 5.7 SSE 22 30 12 16 1020.3 1020.1 0.0
17/04:30pm 15.7 10.7 3.5 44 5.6 SSE 19 33 10 18 1020.3 1020.1 0.0
17/04:00pm 15.7 10.4 3.2 43 5.7 SSE 20 30 11 16 1020.0 1019.8 0.0
17/03:30pm 16.4 10.8 3.7 42 5.9 SSE 22 37 12 20 1020.5 1020.3 0.0
17/03:00pm 15.7 10.1 3.5 44 5.6 SSE 22 32 12 17 1020.8 1020.6 0.0
17/02:30pm 16.5 11.5 4.4 44 5.7 S 20 35 11 19 1021.1 1020.9 0.0
17/02:00pm 16.0 11.0 4.5 46 5.4 SSE 20 30 11 16 1021.1 1020.9 0.0
17/01:30pm 15.0 9.7 5.0 51 4.7 SSE 22 43 12 23 1021.6 1021.4 0.0
17/01:00pm 15.4 10.3 6.1 54 4.5 SE 22 32 12 17 1021.6 1021.4 0.0
17/12:30pm 14.6 9.8 5.8 55 4.2 S 20 28 11 15 1021.8 1021.6 0.0
17/12:00pm 14.7 9.5 5.4 53 4.4 S 22 32 12 17 1022.2 1022.0 0.0
17/11:30am 14.2 8.9 5.0 54 4.3 SSW 22 32 12 17 1021.8 1021.6 0.0
17/11:07am 13.0 7.5 4.0 54 4.1 SSW 22 32 12 17 1021.9 1021.7 0.0
17/11:00am 12.8 7.6 5.3 60 3.5 SSW 22 30 12 16 1021.8 1021.6 0.0
17/10:30am 14.9 10.0 4.9 51 4.7 S 20 32 11 17 1021.6 1021.4 0.0
17/10:00am 13.0 8.3 5.0 58 3.7 S 19 30 10 16 1021.7 1021.5 0.0
17/09:30am 13.5 8.7 4.9 56 4.0 SSW 19 28 10 15 1021.6 1021.4 0.0
17/09:00am 12.6 7.8 5.5 62 3.3 SSW 20 28 11 15 1021.6 1021.4 0.0
17/08:30am 11.9 7.4 5.9 66 2.8 SW 19 26 10 14 1021.4 1021.2 0.0
17/08:00am 11.7 6.6 5.9 67 2.7 SW 22 30 12 16 1021.1 1020.9 0.0
17/07:30am 10.8 5.8 6.3 74 2.1 WSW 22 28 12 15 1020.8 1020.6 0.0

Latest Capital City Observations: Canberra | Sydney | Melbourne | Brisbane | Adelaide | Perth | Hobart | Darwin

Other formats

Comma delimited format used in spreadsheet applications
http://www.bom.gov.au/fwo/IDV60901/IDV60901.94866.axf

JavaScript Object Notation format (JSON) in row-major order
http://www.bom.gov.au/fwo/IDV60901/IDV60901.94866.json

Data quality

Most of these data are generated automatically and are frequently updated. Quality checks on data are not normally performed. It is possible for incorrect values to appear. Refer to information at About Latest Weather Observations and please check the disclaimer before using these data.